Ronja Harvester — LAWU — position and weather

sailwx.info

Track history (hours):
 
Tides and Currents Weather Stations Pressure Air Temp Water Temp Dewpoint Dewpoint Depression Visibility Wind Speed Wind Dir Waves Ship Positions

Ronja Harvester

Last reported at 2018-Jun-19 22:00 UTC. Time now 2018-Jun-19 21:59 UTC.
Position N 69°29' E 017°34'.

Length 68 m; draft 5.8 m.

Type: Cargo ship. MMSI: 258799000.

Date/timePositionNaut miles runAvg speedWind from/ knotsBaromVisibWave heightAir tempDewpointWater temp
2018-Jun-19 22:00N 69°29' E 017°34'0 0.0
2018-Jun-19 21:30N 69°29' E 017°34'0 0.0
2018-Jun-19 20:59N 69°29' E 017°34'0 0.7
2018-Jun-19 20:30N 69°29' E 017°35'0 0.6
2018-Jun-19 19:59N 69°29' E 017°34'0 0.0
2018-Jun-19 19:30N 69°29' E 017°34'0 0.0
2018-Jun-19 19:00N 69°29' E 017°34'0 0.0
2018-Jun-19 18:30N 69°29' E 017°34'0 0.0
2018-Jun-19 18:00N 69°29' E 017°34'1 2.8
2018-Jun-19 17:30N 69°30' E 017°33'510.0
2018-Jun-19 17:00N 69°35' E 017°26'510.7
2018-Jun-19 16:30N 69°40' E 017°33'611.2
2018-Jun-19 15:59N 69°43' E 017°45'611.6
2018-Jun-19 15:29N 69°47' E 017°58'611.8
2018-Jun-19 14:59N 69°51' E 018°11'611.5
2018-Jun-19 14:29N 69°53' E 018°27'611.6
2018-Jun-19 14:00N 69°57' E 018°38'611.1
2018-Jun-19 13:30N 70°01' E 018°49'5 9.9
2018-Jun-19 13:00N 70°04' E 019°00'510.8
2018-Jun-19 12:30N 70°06' E 019°15'611.7
2018-Jun-19 12:00N 70°04' E 019°31'611.9
2018-Jun-19 11:29N 70°02' E 019°48'612.0
2018-Jun-19 10:59N 70°02' E 020°06'611.9
2018-Jun-19 10:30N 70°01' E 020°23'611.8
2018-Jun-19 10:00N 70°02' E 020°40'612.0
2018-Jun-19 09:30N 70°04' E 020°56'2 4.0
2018-Jun-19 09:00N 70°02' E 020°59'0 0.0
2018-Jun-19 08:29N 70°02' E 020°59'0 0.0
2018-Jun-19 07:59N 70°02' E 020°59'0 0.1
2018-Jun-19 07:30N 70°02' E 020°59'0 0.0
2018-Jun-19 07:00N 70°02' E 020°59'2 3.4
2018-Jun-19 06:30N 70°04' E 021°01'510.7
2018-Jun-19 06:00N 70°02' E 020°46'611.2
2018-Jun-19 05:30N 70°01' E 020°29'611.1
2018-Jun-19 05:00N 70°01' E 020°13'611.1
2018-Jun-19 04:28N 70°02' E 019°56'611.5
2018-Jun-19 03:58N 70°03' E 019°40'511.3
2018-Jun-19 03:30N 70°05' E 019°25'611.4
2018-Jun-19 03:00N 70°06' E 019°08'611.0
2018-Jun-19 02:30N 70°02' E 018°55'611.8
2018-Jun-19 01:59N 69°58' E 018°42'510.8
2018-Jun-19 01:30N 69°55' E 018°32'510.5
2018-Jun-19 01:00N 69°52' E 018°18'611.4
2018-Jun-19 00:29N 69°49' E 018°04'511.2
2018-Jun-19 00:00N 69°46' E 017°51'510.9
2018-Jun-18 23:30N 69°42' E 017°40'611.3
2018-Jun-18 22:59N 69°38' E 017°28'510.2
2018-Jun-18 22:30N 69°33' E 017°27'5 9.0
2018-Jun-18 22:00N 69°29' E 017°34'0 0.3
2018-Jun-18 21:30N 69°29' E 017°34'0 0.0
2018-Jun-18 21:00N 69°29' E 017°34'0 0.0
2018-Jun-18 20:30N 69°29' E 017°34'0 0.0
2018-Jun-18 20:00N 69°29' E 017°34'0 0.0
2018-Jun-18 19:30N 69°29' E 017°34'0 0.0
2018-Jun-18 18:59N 69°29' E 017°34'0 0.1
2018-Jun-18 18:29N 69°29' E 017°34'3 7.1
2018-Jun-18 18:00N 69°32' E 017°29'510.9
2018-Jun-18 17:30N 69°37' E 017°28'611.3
2018-Jun-18 17:00N 69°41' E 017°39'611.8
2018-Jun-18 16:30N 69°45' E 017°52'612.0
2018-Jun-18 15:59N 69°49' E 018°05'612.1
2018-Jun-18 15:30N 69°52' E 018°20'611.4
2018-Jun-18 15:00N 69°55' E 018°33'611.6
2018-Jun-18 14:30N 69°60' E 018°45'510.1
2018-Jun-18 14:00N 70°03' E 018°57'510.7
2018-Jun-18 13:30N 70°06' E 019°10'510.6
2018-Jun-18 13:00N 70°05' E 019°25'611.6
2018-Jun-18 12:30N 70°03' E 019°41'611.5
2018-Jun-18 12:00N 70°02' E 019°58'611.9
2018-Jun-18 11:30N 70°02' E 020°15'612.0
2018-Jun-18 11:00N 70°01' E 020°33'612.2
2018-Jun-18 10:30N 70°03' E 020°50'4 7.4
2018-Jun-18 10:00N 70°02' E 021°00'0 0.8
2018-Jun-18 09:30N 70°02' E 020°59'0 0.0
2018-Jun-18 09:00N 70°02' E 020°59'0 0.0
2018-Jun-18 08:30N 70°02' E 020°59'1 1.3
2018-Jun-18 08:00N 70°02' E 021°01'2 3.5
2018-Jun-18 07:30N 70°04' E 021°02'3 5.4
2018-Jun-18 06:59N 70°03' E 020°54'4 8.1
2018-Jun-18 06:30N 70°02' E 020°43'5 9.1
2018-Jun-18 06:00N 70°01' E 020°30'510.8
2018-Jun-18 05:30N 70°02' E 020°14'510.5
2018-Jun-18 04:59N 70°02' E 019°59'510.7
2018-Jun-18 04:30N 70°03' E 019°44'510.6
2018-Jun-18 04:00N 70°05' E 019°29'510.9
2018-Jun-18 03:30N 70°06' E 019°14'510.6
2018-Jun-18 03:00N 70°04' E 018°59'510.8
2018-Jun-18 02:30N 70°00' E 018°47'510.9
2018-Jun-18 02:00N 69°56' E 018°37'510.5
2018-Jun-18 01:30N 69°53' E 018°25'510.8
2018-Jun-18 01:00N 69°51' E 018°11'611.3
2018-Jun-18 00:30N 69°47' E 017°57'611.1
2018-Jun-18 00:00N 69°44' E 017°45'510.9
2018-Jun-17 23:30N 69°40' E 017°34'510.5
2018-Jun-17 23:00N 69°36' E 017°26'5 9.9
2018-Jun-17 22:29N 69°31' E 017°31'2 4.3
2018-Jun-17 21:59N 69°29' E 017°34'0 0.0
2018-Jun-17 21:30N 69°29' E 017°34'0 0.0
2018-Jun-17 21:00N 69°29' E 017°34'0 0.0
2018-Jun-17 20:30N 69°29' E 017°34'0 0.0
2018-Jun-17 20:00N 69°29' E 017°34'0 0.0
2018-Jun-17 19:30N 69°29' E 017°34'0 0.0
2018-Jun-17 18:59N 69°29' E 017°34'0 0.9
2018-Jun-17 18:29N 69°29' E 017°34'510.0
2018-Jun-17 18:00N 69°33' E 017°27'510.7
2018-Jun-17 17:30N 69°39' E 017°31'611.4
2018-Jun-17 17:00N 69°38' E 017°48'612.1
2018-Jun-17 16:30N 69°33' E 017°60'611.6
2018-Jun-17 16:00N 69°31' E 018°14'612.1
2018-Jun-17 15:28N 69°32' E 018°32'612.0
2018-Jun-17 15:00N 69°34' E 018°47'612.8
2018-Jun-17 14:30N 69°39' E 018°59'0 0.7
2018-Jun-17 14:00N 69°39' E 018°58'0 0.0
2018-Jun-17 13:30N 69°39' E 018°58'0 0.0
2018-Jun-17 12:57N 69°39' E 018°58'0 0.0
2018-Jun-17 12:30N 69°39' E 018°58'3 5.9
2018-Jun-17 11:59N 69°42' E 019°03'510.9
2018-Jun-17 11:30N 69°47' E 019°11'611.2
2018-Jun-17 10:59N 69°50' E 019°23'611.9
2018-Jun-17 10:29N 69°55' E 019°31'611.7
2018-Jun-17 09:59N 69°60' E 019°43'510.9
2018-Jun-17 09:30N 70°02' E 019°57'611.5
2018-Jun-17 08:59N 70°02' E 020°14'511.0
2018-Jun-17 08:30N 70°01' E 020°30'611.6
2018-Jun-17 07:59N 70°03' E 020°47'510.0
2018-Jun-17 07:30N 70°03' E 021°01'1 2.9
2018-Jun-17 07:00N 70°02' E 020°59'0 0.0
2018-Jun-17 06:30N 70°02' E 020°59'0 0.0
2018-Jun-17 06:00N 70°02' E 020°59'0 0.0
2018-Jun-17 05:29N 70°02' E 020°59'0 1.0
2018-Jun-17 05:00N 70°02' E 021°01'4 7.2
2018-Jun-17 04:30N 70°03' E 020°50'611.5
2018-Jun-17 03:59N 70°01' E 020°34'510.7
2018-Jun-17 03:30N 70°02' E 020°19'511.0
2018-Jun-17 03:00N 70°02' E 020°03'611.8
2018-Jun-17 02:30N 70°03' E 019°46'611.4
2018-Jun-17 02:00N 70°04' E 019°30'611.7
2018-Jun-17 01:30N 70°06' E 019°13'511.1
2018-Jun-17 01:00N 70°03' E 018°59'611.8
2018-Jun-17 00:30N 69°60' E 018°45'611.1
2018-Jun-17 00:00N 69°56' E 018°34'510.4
2018-Jun-16 23:29N 69°52' E 018°22'611.4
2018-Jun-16 23:00N 69°50' E 018°08'611.1
2018-Jun-16 22:30N 69°46' E 017°55'510.9
2018-Jun-16 22:00N 69°43' E 017°43'611.1
2018-Jun-16 21:30N 69°39' E 017°32'5 9.2
2018-Jun-16 20:59N 69°34' E 017°26'5 9.9
2018-Jun-16 20:30N 69°30' E 017°32'2 3.0
2018-Jun-16 20:00N 69°29' E 017°34'0 0.0
2018-Jun-16 19:30N 69°29' E 017°34'0 0.0
2018-Jun-16 19:00N 69°29' E 017°34'0 0.0
2018-Jun-16 18:29N 69°29' E 017°34'0 0.5
2018-Jun-16 17:59N 69°29' E 017°35'0 0.5
2018-Jun-16 17:30N 69°29' E 017°34'0 0.0
2018-Jun-16 17:00N 69°29' E 017°34'0 0.0
2018-Jun-16 16:30N 69°29' E 017°34'0 1.0
2018-Jun-16 16:00N 69°29' E 017°34'0 0.2
2018-Jun-16 15:30N 69°29' E 017°35'0 0.5
2018-Jun-16 14:57N 69°30' E 017°35'0 0.1
2018-Jun-16 14:30N 69°30' E 017°35'1 2.2
2018-Jun-16 14:00N 69°31' E 017°33'0 0.6
2018-Jun-16 13:30N 69°30' E 017°32'0 0.2
2018-Jun-16 13:00N 69°30' E 017°33'0 0.4
2018-Jun-16 12:30N 69°31' E 017°32'0 0.3
2018-Jun-16 12:00N 69°30' E 017°32'0 0.5
2018-Jun-16 11:30N 69°30' E 017°33'0 0.4
2018-Jun-16 11:00N 69°30' E 017°33'0 0.5
2018-Jun-16 10:30N 69°30' E 017°33'0 0.9
2018-Jun-16 10:00N 69°30' E 017°33'0 0.8
2018-Jun-16 09:29N 69°30' E 017°33'1 1.2
2018-Jun-16 09:00N 69°31' E 017°33'0 0.7
2018-Jun-16 08:30N 69°30' E 017°33'0 0.6
2018-Jun-16 08:00N 69°30' E 017°33'0 0.5
2018-Jun-16 07:30N 69°30' E 017°33'0 0.4
2018-Jun-16 06:59N 69°30' E 017°33'0 0.2
2018-Jun-16 06:30N 69°30' E 017°33'2 3.6
2018-Jun-16 06:00N 69°32' E 017°29'5 9.7
2018-Jun-16 05:30N 69°36' E 017°27'4 8.8
2018-Jun-16 05:00N 69°39' E 017°38'611.1
2018-Jun-16 04:29N 69°36' E 017°53'611.8
2018-Jun-16 04:00N 69°32' E 018°04'510.6
2018-Jun-16 03:30N 69°31' E 018°19'510.3
2018-Jun-16 02:59N 69°32' E 018°34'612.0
2018-Jun-16 02:30N 69°35' E 018°49'4 8.0
2018-Jun-16 01:58N 69°38' E 018°56'0 0.0
2018-Jun-16 01:28N 69°38' E 018°56'0 0.0
2018-Jun-16 00:58N 69°38' E 018°56'0 0.0
2018-Jun-16 00:28N 69°38' E 018°56'0 0.0
2018-Jun-15 23:58N 69°38' E 018°56'0 0.0
2018-Jun-15 23:28N 69°38' E 018°56'0 0.0
2018-Jun-15 22:58N 69°38' E 018°56'0 0.0
2018-Jun-15 22:28N 69°38' E 018°56'0 0.0
2018-Jun-15 21:58N 69°38' E 018°56'0 0.0
2018-Jun-15 21:28N 69°38' E 018°56'0 0.0
2018-Jun-15 20:58N 69°38' E 018°56'0 0.0
2018-Jun-15 20:28N 69°38' E 018°56'0 0.0
2018-Jun-15 19:58N 69°38' E 018°56'0 0.0
2018-Jun-15 19:28N 69°38' E 018°56'0 0.0
2018-Jun-15 18:58N 69°38' E 018°56'0 0.0
2018-Jun-15 18:28N 69°38' E 018°56'0 0.0
2018-Jun-15 17:58N 69°38' E 018°56'0 0.0
2018-Jun-15 17:28N 69°38' E 018°56'0 0.0
2018-Jun-15 16:58N 69°38' E 018°56'0 0.0
2018-Jun-15 16:30N 69°38' E 018°56'0 0.0
2018-Jun-15 16:01N 69°38' E 018°56'0 0.0
2018-Jun-15 15:31N 69°38' E 018°56'0 0.0
2018-Jun-15 15:00N 69°38' E 018°56'0 0.0
2018-Jun-15 14:30N 69°38' E 018°56'0 0.0
2018-Jun-15 14:00N 69°38' E 018°56'0 0.0
2018-Jun-15 13:30N 69°38' E 018°56'0 0.0
2018-Jun-15 13:00N 69°38' E 018°56'0 0.0
2018-Jun-15 12:30N 69°38' E 018°56'0 0.0
2018-Jun-15 12:00N 69°38' E 018°56'0 0.0
2018-Jun-15 11:30N 69°38' E 018°56'0 0.0
2018-Jun-15 11:01N 69°38' E 018°56'0 0.1
2018-Jun-15 10:30N 69°38' E 018°56'5 9.1
2018-Jun-15 10:00N 69°42' E 019°03'510.6
2018-Jun-15 09:30N 69°47' E 019°11'611.5
2018-Jun-15 09:00N 69°50' E 019°23'611.5
2018-Jun-15 08:30N 69°55' E 019°31'611.5
2018-Jun-15 08:01N 69°59' E 019°43'611.1
2018-Jun-15 07:30N 70°02' E 019°57'611.9
2018-Jun-15 07:00N 70°02' E 020°15'612.1
2018-Jun-15 06:29N 70°01' E 020°33'612.0
2018-Jun-15 05:59N 70°03' E 020°50'4 8.5
2018-Jun-15 05:30N 70°02' E 021°02'1 2.0
2018-Jun-15 05:00N 70°02' E 020°59'0 0.0
2018-Jun-15 04:30N 70°02' E 020°59'0 0.0
2018-Jun-15 04:01N 70°02' E 020°59'0 0.5
2018-Jun-15 03:30N 70°02' E 021°00'3 5.8
2018-Jun-15 03:00N 70°03' E 020°52'611.3
2018-Jun-15 02:30N 70°01' E 020°36'510.5
2018-Jun-15 02:00N 70°02' E 020°21'510.3
2018-Jun-15 01:30N 70°02' E 020°06'510.9
2018-Jun-15 01:00N 70°03' E 019°50'510.8
2018-Jun-15 00:30N 70°04' E 019°35'511.0
2018-Jun-15 00:01N 70°06' E 019°20'611.0
2018-Jun-14 23:30N 70°05' E 019°03'511.0
2018-Jun-14 23:01N 70°02' E 018°51'611.4
2018-Jun-14 22:29N 69°57' E 018°40'510.8
2018-Jun-14 22:01N 69°53' E 018°29'510.9
2018-Jun-14 21:31N 69°52' E 018°15'611.4
2018-Jun-14 21:00N 69°48' E 018°01'510.8
2018-Jun-14 20:30N 69°44' E 017°49'510.9
2018-Jun-14 20:00N 69°41' E 017°37'511.1
2018-Jun-14 19:30N 69°37' E 017°27'510.5
2018-Jun-14 19:00N 69°31' E 017°30'3 5.9
2018-Jun-14 18:30N 69°29' E 017°34'0 0.0
2018-Jun-14 18:00N 69°29' E 017°34'0 0.0
2018-Jun-14 17:30N 69°29' E 017°34'0 0.0
2018-Jun-14 17:00N 69°29' E 017°34'0 0.0
2018-Jun-14 16:28N 69°29' E 017°34'0 0.0
2018-Jun-14 16:00N 69°29' E 017°34'0 0.0
2018-Jun-14 15:29N 69°29' E 017°34'0 0.0
2018-Jun-14 15:00N 69°29' E 017°34'0 0.0
2018-Jun-14 14:30N 69°29' E 017°34'1 1.2
2018-Jun-14 14:01N 69°30' E 017°34'5 9.6
2018-Jun-14 13:29N 69°34' E 017°27'510.9
2018-Jun-14 13:00N 69°39' E 017°31'612.2
2018-Jun-14 12:31N 69°43' E 017°44'612.4
2018-Jun-14 12:01N 69°47' E 017°57'612.3
2018-Jun-14 11:30N 69°51' E 018°12'611.8
2018-Jun-14 11:01N 69°53' E 018°27'611.6
2018-Jun-14 10:30N 69°57' E 018°39'510.9
2018-Jun-14 10:00N 70°01' E 018°49'5 9.6
2018-Jun-14 09:30N 70°04' E 019°00'510.8
2018-Jun-14 09:00N 70°06' E 019°15'611.7
2018-Jun-14 08:30N 70°04' E 019°32'612.1
2018-Jun-14 08:00N 70°03' E 019°49'612.1
2018-Jun-14 07:30N 70°02' E 020°07'612.0
2018-Jun-14 07:00N 70°01' E 020°24'611.8
2018-Jun-14 06:31N 70°02' E 020°41'612.3
2018-Jun-14 06:00N 70°04' E 020°59'2 3.9
2018-Jun-14 05:30N 70°02' E 020°59'0 0.3
2018-Jun-14 05:00N 70°02' E 020°59'0 0.0
2018-Jun-14 04:30N 70°02' E 020°59'0 0.0
2018-Jun-14 04:00N 70°02' E 020°59'0 0.0
2018-Jun-14 03:29N 70°02' E 020°59'2 3.9
2018-Jun-14 03:00N 70°04' E 020°60'511.0
2018-Jun-14 02:30N 70°02' E 020°44'610.8
2018-Jun-14 01:59N 70°01' E 020°28'510.8
2018-Jun-14 01:30N 70°02' E 020°13'510.8
2018-Jun-14 01:00N 70°02' E 019°57'611.1
2018-Jun-14 00:31N 70°03' E 019°41'611.0
2018-Jun-14 00:00N 70°05' E 019°26'510.9
2018-Jun-13 23:30N 70°06' E 019°10'510.5
2018-Jun-13 23:00N 70°03' E 018°57'611.2
2018-Jun-13 22:31N 69°59' E 018°45'610.7
2018-Jun-13 22:00N 69°56' E 018°33'510.2
2018-Jun-13 21:30N 69°52' E 018°22'510.8
2018-Jun-13 20:59N 69°50' E 018°08'510.8
2018-Jun-13 20:30N 69°47' E 017°55'510.3
2018-Jun-13 20:00N 69°43' E 017°45'510.5
2018-Jun-13 19:30N 69°40' E 017°33'510.0
2018-Jun-13 19:00N 69°35' E 017°27'5 9.9
2018-Jun-13 18:30N 69°31' E 017°32'2 3.7
2018-Jun-13 18:00N 69°29' E 017°34'0 0.0
2018-Jun-13 17:31N 69°29' E 017°34'0 0.0
2018-Jun-13 17:01N 69°29' E 017°34'0 0.0
2018-Jun-13 16:30N 69°29' E 017°34'0 0.0
2018-Jun-13 16:00N 69°29' E 017°34'0 0.0
2018-Jun-13 15:28N 69°29' E 017°34'0 0.5
2018-Jun-13 15:01N 69°29' E 017°34'2 4.5
2018-Jun-13 14:30N 69°31' E 017°31'510.8
2018-Jun-13 14:00N 69°36' E 017°27'510.9
2018-Jun-13 13:30N 69°41' E 017°36'611.7
2018-Jun-13 13:00N 69°44' E 017°49'611.6
2018-Jun-13 12:30N 69°48' E 018°02'611.9
2018-Jun-13 12:00N 69°52' E 018°16'510.2
2018-Jun-13 11:30N 69°54' E 018°30'510.0
2018-Jun-13 11:01N 69°57' E 018°39'5 9.7
2018-Jun-13 10:30N 70°01' E 018°48'4 8.3
2018-Jun-13 10:00N 70°03' E 018°58'4 8.9
2018-Jun-13 09:30N 70°06' E 019°09'5 9.0
2018-Jun-13 09:00N 70°06' E 019°22'5 9.7
2018-Jun-13 08:30N 70°04' E 019°35'510.1
2018-Jun-13 08:00N 70°03' E 019°50'611.7
2018-Jun-13 07:30N 70°02' E 020°07'611.8
2018-Jun-13 07:00N 70°01' E 020°24'611.6
2018-Jun-13 06:31N 70°02' E 020°41'612.0
2018-Jun-13 06:00N 70°04' E 020°57'2 3.7
2018-Jun-13 05:30N 70°02' E 020°59'0 0.1
2018-Jun-13 05:01N 70°02' E 020°59'0 0.0
2018-Jun-13 04:30N 70°02' E 020°59'1 2.5
2018-Jun-13 04:00N 70°03' E 021°01'5 9.0
2018-Jun-13 03:30N 70°03' E 020°48'510.9
2018-Jun-13 03:00N 70°01' E 020°33'510.8
2018-Jun-13 02:30N 70°01' E 020°17'510.5
2018-Jun-13 01:59N 70°01' E 020°01'510.5
2018-Jun-13 01:30N 70°01' E 019°46'510.4
2018-Jun-13 01:00N 69°57' E 019°37'510.1
2018-Jun-13 00:30N 69°53' E 019°27'510.1
2018-Jun-13 00:00N 69°48' E 019°21'510.7
2018-Jun-12 23:29N 69°46' E 019°07'510.0
2018-Jun-12 23:00N 69°41' E 019°02'5 9.4
2018-Jun-12 22:30N 69°37' E 018°55'511.0
2018-Jun-12 22:00N 69°33' E 018°44'611.5
2018-Jun-12 21:30N 69°31' E 018°28'610.8
2018-Jun-12 21:00N 69°29' E 018°14'5 9.1
2018-Jun-12 20:30N 69°25' E 018°07'5 9.4
2018-Jun-12 20:00N 69°21' E 018°05'5 9.3
2018-Jun-12 19:30N 69°17' E 017°58'5 9.1
2018-Jun-12 19:00N 69°12' E 018°01'4 8.8
2018-Jun-12 18:31N 69°09' E 017°52'510.0
2018-Jun-12 18:00N 69°07' E 017°39'510.0
2018-Jun-12 17:30N 69°05' E 017°26'510.3
2018-Jun-12 17:00N 69°01' E 017°17'510.0
2018-Jun-12 16:30N 68°59' E 017°05'510.1
2018-Jun-12 16:00N 68°57' E 016°52'3 6.1
2018-Jun-12 15:30N 68°56' E 016°44'0 0.0
2018-Jun-12 15:00N 68°56' E 016°44'0 0.0
2018-Jun-12 14:30N 68°56' E 016°44'0 0.0
2018-Jun-12 13:59N 68°56' E 016°44'1 2.3
2018-Jun-12 13:30N 68°57' E 016°46'510.0
2018-Jun-12 13:00N 68°58' E 016°59'611.7
2018-Jun-12 12:30N 69°00' E 017°15'612.0
2018-Jun-12 12:00N 69°05' E 017°24'612.4
2018-Jun-12 11:31N 69°08' E 017°40'612.7
2018-Jun-12 11:00N 69°10' E 017°57'5 9.4
2018-Jun-12 10:30N 69°15' E 017°58'611.3
2018-Jun-12 09:59N 69°20' E 018°03'611.7
2018-Jun-12 09:30N 69°26' E 018°07'510.7
2018-Jun-12 09:01N 69°30' E 018°16'612.2
2018-Jun-12 08:29N 69°32' E 018°33'510.0
2018-Jun-12 07:59N 69°34' E 018°47'611.8
2018-Jun-12 07:30N 69°38' E 018°57'611.6
2018-Jun-12 07:00N 69°44' E 019°03'611.0
2018-Jun-12 06:30N 69°47' E 019°15'611.5
2018-Jun-12 06:00N 69°52' E 019°25'612.0
2018-Jun-12 05:30N 69°57' E 019°36'611.8
2018-Jun-12 05:00N 70°01' E 019°47'612.0
2018-Jun-12 04:30N 70°02' E 020°04'611.9
2018-Jun-12 04:00N 70°02' E 020°22'612.0
2018-Jun-12 03:30N 70°02' E 020°39'612.3
2018-Jun-12 03:00N 70°04' E 020°56'2 3.8
2018-Jun-12 02:31N 70°02' E 020°59'0 0.0
2018-Jun-12 02:00N 70°02' E 020°59'0 0.0
2018-Jun-12 01:30N 70°02' E 020°59'0 0.0
2018-Jun-12 00:59N 70°02' E 020°59'0 0.0
2018-Jun-12 00:29N 70°02' E 020°59'2 3.2
2018-Jun-11 23:59N 70°04' E 021°01'510.2
2018-Jun-11 23:30N 70°03' E 020°47'510.6
2018-Jun-11 23:00N 70°01' E 020°32'611.0
2018-Jun-11 22:30N 70°01' E 020°16'510.2
2018-Jun-11 22:00N 70°01' E 020°01'610.6
2018-Jun-11 21:28N 70°00' E 019°44'510.1
2018-Jun-11 21:00N 69°57' E 019°36'5 9.5
2018-Jun-11 20:30N 69°53' E 019°27'5 9.8
2018-Jun-11 20:00N 69°49' E 019°21'511.0
2018-Jun-11 19:30N 69°46' E 019°07'510.3
2018-Jun-11 19:00N 69°41' E 019°02'611.2
2018-Jun-11 18:30N 69°36' E 018°53'611.6
2018-Jun-11 18:00N 69°33' E 018°40'510.9
2018-Jun-11 17:30N 69°31' E 018°25'510.7
2018-Jun-11 17:00N 69°29' E 018°11'5 9.5
2018-Jun-11 16:30N 69°25' E 018°07'510.0
2018-Jun-11 16:00N 69°20' E 018°02'5 9.7
2018-Jun-11 15:30N 69°15' E 017°59'4 8.4
2018-Jun-11 15:00N 69°11' E 018°00'510.8
2018-Jun-11 14:30N 69°08' E 017°47'611.0
2018-Jun-11 14:00N 69°06' E 017°33'510.2
2018-Jun-11 13:30N 69°03' E 017°21'510.3
2018-Jun-11 13:00N 68°60' E 017°11'510.6
2018-Jun-11 12:30N 68°58' E 016°57'510.1
2018-Jun-11 12:00N 68°56' E 016°44'0 0.4
2018-Jun-11 11:30N 68°56' E 016°44'0 0.0
2018-Jun-11 11:00N 68°56' E 016°44'0 0.0
2018-Jun-11 10:30N 68°56' E 016°44'0 0.0
2018-Jun-11 09:59N 68°56' E 016°44'0 0.0
2018-Jun-11 09:30N 68°56' E 016°44'0 0.0
2018-Jun-11 09:00N 68°56' E 016°44'0 0.0
2018-Jun-11 08:30N 68°56' E 016°44'1 1.3
2018-Jun-11 08:00N 68°56' E 016°45'5 9.5
2018-Jun-11 07:30N 68°58' E 016°58'611.6
2018-Jun-11 07:00N 68°60' E 017°13'611.3
2018-Jun-11 06:30N 69°04' E 017°23'511.0
2018-Jun-11 06:00N 69°07' E 017°36'611.3
2018-Jun-11 05:30N 69°09' E 017°51'5 9.3
2018-Jun-11 05:00N 69°12' E 017°60'510.7
2018-Jun-11 04:30N 69°18' E 017°58'510.5
2018-Jun-11 03:59N 69°23' E 018°05'511.2
2018-Jun-11 03:30N 69°28' E 018°07'611.5
2018-Jun-11 03:00N 69°30' E 018°22'611.7
2018-Jun-11 02:30N 69°33' E 018°38'611.9
2018-Jun-11 02:00N 69°36' E 018°52'510.4
2018-Jun-11 01:30N 69°40' E 019°00'510.1
2018-Jun-11 01:00N 69°45' E 019°04'5 9.8
2018-Jun-11 00:30N 69°48' E 019°17'5 9.7
2018-Jun-11 00:00N 69°52' E 019°24'510.3
2018-Jun-10 23:30N 69°56' E 019°32'510.1
2018-Jun-10 23:00N 69°59' E 019°43'5 9.3
2018-Jun-10 22:30N 70°02' E 019°54'4 8.8
2018-Jun-10 22:00N 70°02' E 020°07'611.2
2018-Jun-10 21:30N 70°01' E 020°24'511.0
2018-Jun-10 21:00N 70°02' E 020°40'610.6
2018-Jun-10 20:29N 70°04' E 020°55'2 4.4
2018-Jun-10 20:00N 70°02' E 020°59'0 0.0
2018-Jun-10 19:30N 70°02' E 020°59'0 0.0
2018-Jun-10 19:00N 70°02' E 020°59'0 0.0
2018-Jun-10 18:30N 70°02' E 020°59'1 1.1
2018-Jun-10 17:59N 70°02' E 021°01'3 6.5
2018-Jun-10 17:30N 70°03' E 020°52'610.6
2018-Jun-10 16:58N 70°02' E 020°36'510.4
2018-Jun-10 16:30N 70°01' E 020°22'510.6
2018-Jun-10 16:00N 70°02' E 020°07'510.5
2018-Jun-10 15:30N 70°02' E 019°51'510.4
2018-Jun-10 15:00N 70°04' E 019°36'1010.0
2018-Jun-10 14:00N 70°06' E 019°07'510.0
2018-Jun-10 13:30N 70°03' E 018°56'4 8.8
2018-Jun-10 13:00N 69°60' E 018°46'510.3
2018-Jun-10 12:30N 69°56' E 018°35'5 9.8
2018-Jun-10 12:00N 69°53' E 018°25'510.2
2018-Jun-10 11:30N 69°51' E 018°12'510.6
2018-Jun-10 11:00N 69°48' E 017°60'610.8
2018-Jun-10 10:29N 69°44' E 017°47'510.3
2018-Jun-10 10:00N 69°41' E 017°37'510.0
2018-Jun-10 09:30N 69°37' E 017°27'5 9.7
2018-Jun-10 08:59N 69°32' E 017°28'4 7.4
2018-Jun-10 08:29N 69°29' E 017°34'0 0.0
2018-Jun-10 08:00N 69°29' E 017°34'0 0.0
2018-Jun-10 07:30N 69°29' E 017°34'0 0.0
2018-Jun-10 07:00N 69°29' E 017°34'0 0.0
2018-Jun-10 06:28N 69°29' E 017°34'0 0.0
2018-Jun-10 05:59N 69°29' E 017°34'0 0.0
2018-Jun-10 05:30N 69°29' E 017°34'0 1.0
2018-Jun-10 05:00N 69°29' E 017°34'5 9.9
2018-Jun-10 04:30N 69°34' E 017°27'510.5
2018-Jun-10 04:00N 69°39' E 017°31'611.5
2018-Jun-10 03:30N 69°43' E 017°43'611.2
2018-Jun-10 02:59N 69°46' E 017°55'5 9.8
2018-Jun-10 02:30N 69°49' E 018°06'5 9.4
2018-Jun-10 02:00N 69°52' E 018°18'5 9.8
2018-Jun-10 01:30N 69°54' E 018°31'510.2
2018-Jun-10 01:00N 69°58' E 018°41'510.7
2018-Jun-10 00:30N 70°02' E 018°51'510.0
2018-Jun-10 00:00N 70°05' E 019°02'5 9.5
2018-Jun-09 23:30N 70°06' E 019°16'5 9.5
2018-Jun-09 22:58N 70°04' E 019°30'5 9.8
2018-Jun-09 22:30N 70°03' E 019°43'  
Track history (hours):
 
Tides and Currents Weather Stations Pressure Air Temp Water Temp Dewpoint Dewpoint Depression Visibility Wind Speed Wind Dir Waves Ship Positions

Ronja Harvester

Last reported at 2018-Jun-19 22:00 UTC. Time now 2018-Jun-19 21:59 UTC.
Position N 69°29' E 017°34'.

Length 68 m; draft 5.8 m.

Type: Cargo ship. MMSI: 258799000.

Date/timePositionNaut miles runAvg speedWind from/ knotsBaromVisibWave heightAir tempDewpointWater temp
2018-Jun-19 22:00N 69°29' E 017°34'0 0.0
2018-Jun-19 21:30N 69°29' E 017°34'0 0.0
2018-Jun-19 20:59N 69°29' E 017°34'0 0.7
2018-Jun-19 20:30N 69°29' E 017°35'0 0.6
2018-Jun-19 19:59N 69°29' E 017°34'0 0.0
2018-Jun-19 19:30N 69°29' E 017°34'0 0.0
2018-Jun-19 19:00N 69°29' E 017°34'0 0.0
2018-Jun-19 18:30N 69°29' E 017°34'0 0.0
2018-Jun-19 18:00N 69°29' E 017°34'1 2.8
2018-Jun-19 17:30N 69°30' E 017°33'510.0
2018-Jun-19 17:00N 69°35' E 017°26'510.7
2018-Jun-19 16:30N 69°40' E 017°33'611.2
2018-Jun-19 15:59N 69°43' E 017°45'611.6
2018-Jun-19 15:29N 69°47' E 017°58'611.8
2018-Jun-19 14:59N 69°51' E 018°11'611.5
2018-Jun-19 14:29N 69°53' E 018°27'611.6
2018-Jun-19 14:00N 69°57' E 018°38'611.1
2018-Jun-19 13:30N 70°01' E 018°49'5 9.9
2018-Jun-19 13:00N 70°04' E 019°00'510.8
2018-Jun-19 12:30N 70°06' E 019°15'611.7
2018-Jun-19 12:00N 70°04' E 019°31'611.9
2018-Jun-19 11:29N 70°02' E 019°48'612.0
2018-Jun-19 10:59N 70°02' E 020°06'611.9
2018-Jun-19 10:30N 70°01' E 020°23'611.8
2018-Jun-19 10:00N 70°02' E 020°40'612.0
2018-Jun-19 09:30N 70°04' E 020°56'2 4.0
2018-Jun-19 09:00N 70°02' E 020°59'0 0.0
2018-Jun-19 08:29N 70°02' E 020°59'0 0.0
2018-Jun-19 07:59N 70°02' E 020°59'0 0.1
2018-Jun-19 07:30N 70°02' E 020°59'0 0.0
2018-Jun-19 07:00N 70°02' E 020°59'2 3.4
2018-Jun-19 06:30N 70°04' E 021°01'510.7
2018-Jun-19 06:00N 70°02' E 020°46'611.2
2018-Jun-19 05:30N 70°01' E 020°29'611.1
2018-Jun-19 05:00N 70°01' E 020°13'611.1
2018-Jun-19 04:28N 70°02' E 019°56'611.5
2018-Jun-19 03:58N 70°03' E 019°40'511.3
2018-Jun-19 03:30N 70°05' E 019°25'611.4
2018-Jun-19 03:00N 70°06' E 019°08'611.0
2018-Jun-19 02:30N 70°02' E 018°55'611.8
2018-Jun-19 01:59N 69°58' E 018°42'510.8
2018-Jun-19 01:30N 69°55' E 018°32'510.5
2018-Jun-19 01:00N 69°52' E 018°18'611.4
2018-Jun-19 00:29N 69°49' E 018°04'511.2
2018-Jun-19 00:00N 69°46' E 017°51'510.9
2018-Jun-18 23:30N 69°42' E 017°40'611.3
2018-Jun-18 22:59N 69°38' E 017°28'510.2
2018-Jun-18 22:30N 69°33' E 017°27'5 9.0
2018-Jun-18 22:00N 69°29' E 017°34'0 0.3
2018-Jun-18 21:30N 69°29' E 017°34'0 0.0
2018-Jun-18 21:00N 69°29' E 017°34'0 0.0
2018-Jun-18 20:30N 69°29' E 017°34'0 0.0
2018-Jun-18 20:00N 69°29' E 017°34'0 0.0
2018-Jun-18 19:30N 69°29' E 017°34'0 0.0
2018-Jun-18 18:59N 69°29' E 017°34'0 0.1
2018-Jun-18 18:29N 69°29' E 017°34'3 7.1
2018-Jun-18 18:00N 69°32' E 017°29'510.9
2018-Jun-18 17:30N 69°37' E 017°28'611.3
2018-Jun-18 17:00N 69°41' E 017°39'611.8
2018-Jun-18 16:30N 69°45' E 017°52'612.0
2018-Jun-18 15:59N 69°49' E 018°05'612.1
2018-Jun-18 15:30N 69°52' E 018°20'611.4
2018-Jun-18 15:00N 69°55' E 018°33'611.6
2018-Jun-18 14:30N 69°60' E 018°45'510.1
2018-Jun-18 14:00N 70°03' E 018°57'510.7
2018-Jun-18 13:30N 70°06' E 019°10'510.6
2018-Jun-18 13:00N 70°05' E 019°25'611.6
2018-Jun-18 12:30N 70°03' E 019°41'611.5
2018-Jun-18 12:00N 70°02' E 019°58'611.9
2018-Jun-18 11:30N 70°02' E 020°15'612.0
2018-Jun-18 11:00N 70°01' E 020°33'612.2
2018-Jun-18 10:30N 70°03' E 020°50'4 7.4
2018-Jun-18 10:00N 70°02' E 021°00'0 0.8
2018-Jun-18 09:30N 70°02' E 020°59'0 0.0
2018-Jun-18 09:00N 70°02' E 020°59'0 0.0
2018-Jun-18 08:30N 70°02' E 020°59'1 1.3
2018-Jun-18 08:00N 70°02' E 021°01'2 3.5
2018-Jun-18 07:30N 70°04' E 021°02'3 5.4
2018-Jun-18 06:59N 70°03' E 020°54'4 8.1
2018-Jun-18 06:30N 70°02' E 020°43'5 9.1
2018-Jun-18 06:00N 70°01' E 020°30'510.8
2018-Jun-18 05:30N 70°02' E 020°14'510.5
2018-Jun-18 04:59N 70°02' E 019°59'510.7
2018-Jun-18 04:30N 70°03' E 019°44'510.6
2018-Jun-18 04:00N 70°05' E 019°29'510.9
2018-Jun-18 03:30N 70°06' E 019°14'510.6
2018-Jun-18 03:00N 70°04' E 018°59'510.8
2018-Jun-18 02:30N 70°00' E 018°47'510.9
2018-Jun-18 02:00N 69°56' E 018°37'510.5
2018-Jun-18 01:30N 69°53' E 018°25'510.8
2018-Jun-18 01:00N 69°51' E 018°11'611.3
2018-Jun-18 00:30N 69°47' E 017°57'611.1
2018-Jun-18 00:00N 69°44' E 017°45'510.9
2018-Jun-17 23:30N 69°40' E 017°34'510.5
2018-Jun-17 23:00N 69°36' E 017°26'5 9.9
2018-Jun-17 22:29N 69°31' E 017°31'2 4.3
2018-Jun-17 21:59N 69°29' E 017°34'0 0.0
2018-Jun-17 21:30N 69°29' E 017°34'0 0.0
2018-Jun-17 21:00N 69°29' E 017°34'0 0.0
2018-Jun-17 20:30N 69°29' E 017°34'0 0.0
2018-Jun-17 20:00N 69°29' E 017°34'0 0.0
2018-Jun-17 19:30N 69°29' E 017°34'0 0.0
2018-Jun-17 18:59N 69°29' E 017°34'0 0.9
2018-Jun-17 18:29N 69°29' E 017°34'510.0
2018-Jun-17 18:00N 69°33' E 017°27'510.7
2018-Jun-17 17:30N 69°39' E 017°31'611.4
2018-Jun-17 17:00N 69°38' E 017°48'612.1
2018-Jun-17 16:30N 69°33' E 017°60'611.6
2018-Jun-17 16:00N 69°31' E 018°14'612.1
2018-Jun-17 15:28N 69°32' E 018°32'612.0
2018-Jun-17 15:00N 69°34' E 018°47'612.8
2018-Jun-17 14:30N 69°39' E 018°59'0 0.7
2018-Jun-17 14:00N 69°39' E 018°58'0 0.0
2018-Jun-17 13:30N 69°39' E 018°58'0 0.0
2018-Jun-17 12:57N 69°39' E 018°58'0 0.0
2018-Jun-17 12:30N 69°39' E 018°58'3 5.9
2018-Jun-17 11:59N 69°42' E 019°03'510.9
2018-Jun-17 11:30N 69°47' E 019°11'611.2
2018-Jun-17 10:59N 69°50' E 019°23'611.9
2018-Jun-17 10:29N 69°55' E 019°31'611.7
2018-Jun-17 09:59N 69°60' E 019°43'510.9
2018-Jun-17 09:30N 70°02' E 019°57'611.5
2018-Jun-17 08:59N 70°02' E 020°14'511.0
2018-Jun-17 08:30N 70°01' E 020°30'611.6
2018-Jun-17 07:59N 70°03' E 020°47'510.0
2018-Jun-17 07:30N 70°03' E 021°01'1 2.9
2018-Jun-17 07:00N 70°02' E 020°59'0 0.0
2018-Jun-17 06:30N 70°02' E 020°59'0 0.0
2018-Jun-17 06:00N 70°02' E 020°59'0 0.0
2018-Jun-17 05:29N 70°02' E 020°59'0 1.0
2018-Jun-17 05:00N 70°02' E 021°01'4 7.2
2018-Jun-17 04:30N 70°03' E 020°50'611.5
2018-Jun-17 03:59N 70°01' E 020°34'510.7
2018-Jun-17 03:30N 70°02' E 020°19'511.0
2018-Jun-17 03:00N 70°02' E 020°03'611.8
2018-Jun-17 02:30N 70°03' E 019°46'611.4
2018-Jun-17 02:00N 70°04' E 019°30'611.7
2018-Jun-17 01:30N 70°06' E 019°13'511.1
2018-Jun-17 01:00N 70°03' E 018°59'611.8
2018-Jun-17 00:30N 69°60' E 018°45'611.1
2018-Jun-17 00:00N 69°56' E 018°34'510.4
2018-Jun-16 23:29N 69°52' E 018°22'611.4
2018-Jun-16 23:00N 69°50' E 018°08'611.1
2018-Jun-16 22:30N 69°46' E 017°55'510.9
2018-Jun-16 22:00N 69°43' E 017°43'611.1
2018-Jun-16 21:30N 69°39' E 017°32'5 9.2
2018-Jun-16 20:59N 69°34' E 017°26'5 9.9
2018-Jun-16 20:30N 69°30' E 017°32'2 3.0
2018-Jun-16 20:00N 69°29' E 017°34'0 0.0
2018-Jun-16 19:30N 69°29' E 017°34'0 0.0
2018-Jun-16 19:00N 69°29' E 017°34'0 0.0
2018-Jun-16 18:29N 69°29' E 017°34'0 0.5
2018-Jun-16 17:59N 69°29' E 017°35'0 0.5
2018-Jun-16 17:30N 69°29' E 017°34'0 0.0
2018-Jun-16 17:00N 69°29' E 017°34'0 0.0
2018-Jun-16 16:30N 69°29' E 017°34'0 1.0
2018-Jun-16 16:00N 69°29' E 017°34'0 0.2
2018-Jun-16 15:30N 69°29' E 017°35'0 0.5
2018-Jun-16 14:57N 69°30' E 017°35'0 0.1
2018-Jun-16 14:30N 69°30' E 017°35'1 2.2
2018-Jun-16 14:00N 69°31' E 017°33'0 0.6
2018-Jun-16 13:30N 69°30' E 017°32'0 0.2
2018-Jun-16 13:00N 69°30' E 017°33'0 0.4
2018-Jun-16 12:30N 69°31' E 017°32'0 0.3
2018-Jun-16 12:00N 69°30' E 017°32'0 0.5
2018-Jun-16 11:30N 69°30' E 017°33'0 0.4
2018-Jun-16 11:00N 69°30' E 017°33'0 0.5
2018-Jun-16 10:30N 69°30' E 017°33'0 0.9
2018-Jun-16 10:00N 69°30' E 017°33'0 0.8
2018-Jun-16 09:29N 69°30' E 017°33'1 1.2
2018-Jun-16 09:00N 69°31' E 017°33'0 0.7
2018-Jun-16 08:30N 69°30' E 017°33'0 0.6
2018-Jun-16 08:00N 69°30' E 017°33'0 0.5
2018-Jun-16 07:30N 69°30' E 017°33'0 0.4
2018-Jun-16 06:59N 69°30' E 017°33'0 0.2
2018-Jun-16 06:30N 69°30' E 017°33'2 3.6
2018-Jun-16 06:00N 69°32' E 017°29'5 9.7
2018-Jun-16 05:30N 69°36' E 017°27'4 8.8
2018-Jun-16 05:00N 69°39' E 017°38'611.1
2018-Jun-16 04:29N 69°36' E 017°53'611.8
2018-Jun-16 04:00N 69°32' E 018°04'510.6
2018-Jun-16 03:30N 69°31' E 018°19'510.3
2018-Jun-16 02:59N 69°32' E 018°34'612.0
2018-Jun-16 02:30N 69°35' E 018°49'4 8.0
2018-Jun-16 01:58N 69°38' E 018°56'0 0.0
2018-Jun-16 01:28N 69°38' E 018°56'0 0.0
2018-Jun-16 00:58N 69°38' E 018°56'0 0.0
2018-Jun-16 00:28N 69°38' E 018°56'0 0.0
2018-Jun-15 23:58N 69°38' E 018°56'0 0.0
2018-Jun-15 23:28N 69°38' E 018°56'0 0.0
2018-Jun-15 22:58N 69°38' E 018°56'0 0.0
2018-Jun-15 22:28N 69°38' E 018°56'0 0.0
2018-Jun-15 21:58N 69°38' E 018°56'0 0.0
2018-Jun-15 21:28N 69°38' E 018°56'0 0.0
2018-Jun-15 20:58N 69°38' E 018°56'0 0.0
2018-Jun-15 20:28N 69°38' E 018°56'0 0.0
2018-Jun-15 19:58N 69°38' E 018°56'0 0.0
2018-Jun-15 19:28N 69°38' E 018°56'0 0.0
2018-Jun-15 18:58N 69°38' E 018°56'0 0.0
2018-Jun-15 18:28N 69°38' E 018°56'0 0.0
2018-Jun-15 17:58N 69°38' E 018°56'0 0.0
2018-Jun-15 17:28N 69°38' E 018°56'0 0.0
2018-Jun-15 16:58N 69°38' E 018°56'0 0.0
2018-Jun-15 16:30N 69°38' E 018°56'0 0.0
2018-Jun-15 16:01N 69°38' E 018°56'0 0.0
2018-Jun-15 15:31N 69°38' E 018°56'0 0.0
2018-Jun-15 15:00N 69°38' E 018°56'0 0.0
2018-Jun-15 14:30N 69°38' E 018°56'0 0.0
2018-Jun-15 14:00N 69°38' E 018°56'0 0.0
2018-Jun-15 13:30N 69°38' E 018°56'0 0.0
2018-Jun-15 13:00N 69°38' E 018°56'0 0.0
2018-Jun-15 12:30N 69°38' E 018°56'0 0.0
2018-Jun-15 12:00N 69°38' E 018°56'0 0.0
2018-Jun-15 11:30N 69°38' E 018°56'0 0.0
2018-Jun-15 11:01N 69°38' E 018°56'0 0.1
2018-Jun-15 10:30N 69°38' E 018°56'5 9.1
2018-Jun-15 10:00N 69°42' E 019°03'510.6
2018-Jun-15 09:30N 69°47' E 019°11'611.5
2018-Jun-15 09:00N 69°50' E 019°23'611.5
2018-Jun-15 08:30N 69°55' E 019°31'611.5
2018-Jun-15 08:01N 69°59' E 019°43'611.1
2018-Jun-15 07:30N 70°02' E 019°57'611.9
2018-Jun-15 07:00N 70°02' E 020°15'612.1
2018-Jun-15 06:29N 70°01' E 020°33'612.0
2018-Jun-15 05:59N 70°03' E 020°50'4 8.5
2018-Jun-15 05:30N 70°02' E 021°02'1 2.0
2018-Jun-15 05:00N 70°02' E 020°59'0 0.0
2018-Jun-15 04:30N 70°02' E 020°59'0 0.0
2018-Jun-15 04:01N 70°02' E 020°59'0 0.5
2018-Jun-15 03:30N 70°02' E 021°00'3 5.8
2018-Jun-15 03:00N 70°03' E 020°52'611.3
2018-Jun-15 02:30N 70°01' E 020°36'510.5
2018-Jun-15 02:00N 70°02' E 020°21'510.3
2018-Jun-15 01:30N 70°02' E 020°06'510.9
2018-Jun-15 01:00N 70°03' E 019°50'510.8
2018-Jun-15 00:30N 70°04' E 019°35'511.0
2018-Jun-15 00:01N 70°06' E 019°20'611.0
2018-Jun-14 23:30N 70°05' E 019°03'511.0
2018-Jun-14 23:01N 70°02' E 018°51'611.4
2018-Jun-14 22:29N 69°57' E 018°40'510.8
2018-Jun-14 22:01N 69°53' E 018°29'510.9
2018-Jun-14 21:31N 69°52' E 018°15'611.4
2018-Jun-14 21:00N 69°48' E 018°01'510.8
2018-Jun-14 20:30N 69°44' E 017°49'510.9
2018-Jun-14 20:00N 69°41' E 017°37'511.1
2018-Jun-14 19:30N 69°37' E 017°27'510.5
2018-Jun-14 19:00N 69°31' E 017°30'3 5.9
2018-Jun-14 18:30N 69°29' E 017°34'0 0.0
2018-Jun-14 18:00N 69°29' E 017°34'0 0.0
2018-Jun-14 17:30N 69°29' E 017°34'0 0.0
2018-Jun-14 17:00N 69°29' E 017°34'0 0.0
2018-Jun-14 16:28N 69°29' E 017°34'0 0.0
2018-Jun-14 16:00N 69°29' E 017°34'0 0.0
2018-Jun-14 15:29N 69°29' E 017°34'0 0.0
2018-Jun-14 15:00N 69°29' E 017°34'0 0.0
2018-Jun-14 14:30N 69°29' E 017°34'1 1.2
2018-Jun-14 14:01N 69°30' E 017°34'5 9.6
2018-Jun-14 13:29N 69°34' E 017°27'510.9
2018-Jun-14 13:00N 69°39' E 017°31'612.2
2018-Jun-14 12:31N 69°43' E 017°44'612.4
2018-Jun-14 12:01N 69°47' E 017°57'612.3
2018-Jun-14 11:30N 69°51' E 018°12'611.8
2018-Jun-14 11:01N 69°53' E 018°27'611.6
2018-Jun-14 10:30N 69°57' E 018°39'510.9
2018-Jun-14 10:00N 70°01' E 018°49'5 9.6
2018-Jun-14 09:30N 70°04' E 019°00'510.8
2018-Jun-14 09:00N 70°06' E 019°15'611.7
2018-Jun-14 08:30N 70°04' E 019°32'612.1
2018-Jun-14 08:00N 70°03' E 019°49'612.1
2018-Jun-14 07:30N 70°02' E 020°07'612.0
2018-Jun-14 07:00N 70°01' E 020°24'611.8
2018-Jun-14 06:31N 70°02' E 020°41'612.3
2018-Jun-14 06:00N 70°04' E 020°59'2 3.9
2018-Jun-14 05:30N 70°02' E 020°59'0 0.3
2018-Jun-14 05:00N 70°02' E 020°59'0 0.0
2018-Jun-14 04:30N 70°02' E 020°59'0 0.0
2018-Jun-14 04:00N 70°02' E 020°59'0 0.0
2018-Jun-14 03:29N 70°02' E 020°59'2 3.9
2018-Jun-14 03:00N 70°04' E 020°60'511.0
2018-Jun-14 02:30N 70°02' E 020°44'610.8
2018-Jun-14 01:59N 70°01' E 020°28'510.8
2018-Jun-14 01:30N 70°02' E 020°13'510.8
2018-Jun-14 01:00N 70°02' E 019°57'611.1
2018-Jun-14 00:31N 70°03' E 019°41'611.0
2018-Jun-14 00:00N 70°05' E 019°26'510.9
2018-Jun-13 23:30N 70°06' E 019°10'510.5
2018-Jun-13 23:00N 70°03' E 018°57'611.2
2018-Jun-13 22:31N 69°59' E 018°45'610.7
2018-Jun-13 22:00N 69°56' E 018°33'510.2
2018-Jun-13 21:30N 69°52' E 018°22'510.8
2018-Jun-13 20:59N 69°50' E 018°08'510.8
2018-Jun-13 20:30N 69°47' E 017°55'510.3
2018-Jun-13 20:00N 69°43' E 017°45'510.5
2018-Jun-13 19:30N 69°40' E 017°33'510.0
2018-Jun-13 19:00N 69°35' E 017°27'5 9.9
2018-Jun-13 18:30N 69°31' E 017°32'2 3.7
2018-Jun-13 18:00N 69°29' E 017°34'0 0.0
2018-Jun-13 17:31N 69°29' E 017°34'0 0.0
2018-Jun-13 17:01N 69°29' E 017°34'0 0.0
2018-Jun-13 16:30N 69°29' E 017°34'0 0.0
2018-Jun-13 16:00N 69°29' E 017°34'0 0.0
2018-Jun-13 15:28N 69°29' E 017°34'0 0.5
2018-Jun-13 15:01N 69°29' E 017°34'2 4.5
2018-Jun-13 14:30N 69°31' E 017°31'510.8
2018-Jun-13 14:00N 69°36' E 017°27'510.9
2018-Jun-13 13:30N 69°41' E 017°36'611.7
2018-Jun-13 13:00N 69°44' E 017°49'611.6
2018-Jun-13 12:30N 69°48' E 018°02'611.9
2018-Jun-13 12:00N 69°52' E 018°16'510.2
2018-Jun-13 11:30N 69°54' E 018°30'510.0
2018-Jun-13 11:01N 69°57' E 018°39'5 9.7
2018-Jun-13 10:30N 70°01' E 018°48'4 8.3
2018-Jun-13 10:00N 70°03' E 018°58'4 8.9
2018-Jun-13 09:30N 70°06' E 019°09'5 9.0
2018-Jun-13 09:00N 70°06' E 019°22'5 9.7
2018-Jun-13 08:30N 70°04' E 019°35'510.1
2018-Jun-13 08:00N 70°03' E 019°50'611.7
2018-Jun-13 07:30N 70°02' E 020°07'611.8
2018-Jun-13 07:00N 70°01' E 020°24'611.6
2018-Jun-13 06:31N 70°02' E 020°41'612.0
2018-Jun-13 06:00N 70°04' E 020°57'2 3.7
2018-Jun-13 05:30N 70°02' E 020°59'0 0.1
2018-Jun-13 05:01N 70°02' E 020°59'0 0.0
2018-Jun-13 04:30N 70°02' E 020°59'1 2.5
2018-Jun-13 04:00N 70°03' E 021°01'5 9.0
2018-Jun-13 03:30N 70°03' E 020°48'510.9
2018-Jun-13 03:00N 70°01' E 020°33'510.8
2018-Jun-13 02:30N 70°01' E 020°17'510.5
2018-Jun-13 01:59N 70°01' E 020°01'510.5
2018-Jun-13 01:30N 70°01' E 019°46'510.4
2018-Jun-13 01:00N 69°57' E 019°37'510.1
2018-Jun-13 00:30N 69°53' E 019°27'510.1
2018-Jun-13 00:00N 69°48' E 019°21'510.7
2018-Jun-12 23:29N 69°46' E 019°07'510.0
2018-Jun-12 23:00N 69°41' E 019°02'5 9.4
2018-Jun-12 22:30N 69°37' E 018°55'511.0
2018-Jun-12 22:00N 69°33' E 018°44'611.5
2018-Jun-12 21:30N 69°31' E 018°28'610.8
2018-Jun-12 21:00N 69°29' E 018°14'5 9.1
2018-Jun-12 20:30N 69°25' E 018°07'5 9.4
2018-Jun-12 20:00N 69°21' E 018°05'5 9.3
2018-Jun-12 19:30N 69°17' E 017°58'5 9.1
2018-Jun-12 19:00N 69°12' E 018°01'4 8.8
2018-Jun-12 18:31N 69°09' E 017°52'510.0
2018-Jun-12 18:00N 69°07' E 017°39'510.0
2018-Jun-12 17:30N 69°05' E 017°26'510.3
2018-Jun-12 17:00N 69°01' E 017°17'510.0
2018-Jun-12 16:30N 68°59' E 017°05'510.1
2018-Jun-12 16:00N 68°57' E 016°52'3 6.1
2018-Jun-12 15:30N 68°56' E 016°44'0 0.0
2018-Jun-12 15:00N 68°56' E 016°44'0 0.0
2018-Jun-12 14:30N 68°56' E 016°44'0 0.0
2018-Jun-12 13:59N 68°56' E 016°44'1 2.3
2018-Jun-12 13:30N 68°57' E 016°46'510.0
2018-Jun-12 13:00N 68°58' E 016°59'611.7
2018-Jun-12 12:30N 69°00' E 017°15'612.0
2018-Jun-12 12:00N 69°05' E 017°24'612.4
2018-Jun-12 11:31N 69°08' E 017°40'612.7
2018-Jun-12 11:00N 69°10' E 017°57'5 9.4
2018-Jun-12 10:30N 69°15' E 017°58'611.3
2018-Jun-12 09:59N 69°20' E 018°03'611.7
2018-Jun-12 09:30N 69°26' E 018°07'510.7
2018-Jun-12 09:01N 69°30' E 018°16'612.2
2018-Jun-12 08:29N 69°32' E 018°33'510.0
2018-Jun-12 07:59N 69°34' E 018°47'611.8
2018-Jun-12 07:30N 69°38' E 018°57'611.6
2018-Jun-12 07:00N 69°44' E 019°03'611.0
2018-Jun-12 06:30N 69°47' E 019°15'611.5
2018-Jun-12 06:00N 69°52' E 019°25'612.0
2018-Jun-12 05:30N 69°57' E 019°36'611.8
2018-Jun-12 05:00N 70°01' E 019°47'612.0
2018-Jun-12 04:30N 70°02' E 020°04'611.9
2018-Jun-12 04:00N 70°02' E 020°22'612.0
2018-Jun-12 03:30N 70°02' E 020°39'612.3
2018-Jun-12 03:00N 70°04' E 020°56'2 3.8
2018-Jun-12 02:31N 70°02' E 020°59'0 0.0
2018-Jun-12 02:00N 70°02' E 020°59'0 0.0
2018-Jun-12 01:30N 70°02' E 020°59'0 0.0
2018-Jun-12 00:59N 70°02' E 020°59'0 0.0
2018-Jun-12 00:29N 70°02' E 020°59'2 3.2
2018-Jun-11 23:59N 70°04' E 021°01'510.2
2018-Jun-11 23:30N 70°03' E 020°47'510.6
2018-Jun-11 23:00N 70°01' E 020°32'611.0
2018-Jun-11 22:30N 70°01' E 020°16'510.2
2018-Jun-11 22:00N 70°01' E 020°01'610.6
2018-Jun-11 21:28N 70°00' E 019°44'510.1
2018-Jun-11 21:00N 69°57' E 019°36'5 9.5
2018-Jun-11 20:30N 69°53' E 019°27'5 9.8
2018-Jun-11 20:00N 69°49' E 019°21'511.0
2018-Jun-11 19:30N 69°46' E 019°07'510.3
2018-Jun-11 19:00N 69°41' E 019°02'611.2
2018-Jun-11 18:30N 69°36' E 018°53'611.6
2018-Jun-11 18:00N 69°33' E 018°40'510.9
2018-Jun-11 17:30N 69°31' E 018°25'510.7
2018-Jun-11 17:00N 69°29' E 018°11'5 9.5
2018-Jun-11 16:30N 69°25' E 018°07'510.0
2018-Jun-11 16:00N 69°20' E 018°02'5 9.7
2018-Jun-11 15:30N 69°15' E 017°59'4 8.4
2018-Jun-11 15:00N 69°11' E 018°00'510.8
2018-Jun-11 14:30N 69°08' E 017°47'611.0
2018-Jun-11 14:00N 69°06' E 017°33'510.2
2018-Jun-11 13:30N 69°03' E 017°21'510.3
2018-Jun-11 13:00N 68°60' E 017°11'510.6
2018-Jun-11 12:30N 68°58' E 016°57'510.1
2018-Jun-11 12:00N 68°56' E 016°44'0 0.4
2018-Jun-11 11:30N 68°56' E 016°44'0 0.0
2018-Jun-11 11:00N 68°56' E 016°44'0 0.0
2018-Jun-11 10:30N 68°56' E 016°44'0 0.0
2018-Jun-11 09:59N 68°56' E 016°44'0 0.0
2018-Jun-11 09:30N 68°56' E 016°44'0 0.0
2018-Jun-11 09:00N 68°56' E 016°44'0 0.0
2018-Jun-11 08:30N 68°56' E 016°44'1 1.3
2018-Jun-11 08:00N 68°56' E 016°45'5 9.5
2018-Jun-11 07:30N 68°58' E 016°58'611.6
2018-Jun-11 07:00N 68°60' E 017°13'611.3
2018-Jun-11 06:30N 69°04' E 017°23'511.0
2018-Jun-11 06:00N 69°07' E 017°36'611.3
2018-Jun-11 05:30N 69°09' E 017°51'5 9.3
2018-Jun-11 05:00N 69°12' E 017°60'510.7
2018-Jun-11 04:30N 69°18' E 017°58'510.5
2018-Jun-11 03:59N 69°23' E 018°05'511.2
2018-Jun-11 03:30N 69°28' E 018°07'611.5
2018-Jun-11 03:00N 69°30' E 018°22'611.7
2018-Jun-11 02:30N 69°33' E 018°38'611.9
2018-Jun-11 02:00N 69°36' E 018°52'510.4
2018-Jun-11 01:30N 69°40' E 019°00'510.1
2018-Jun-11 01:00N 69°45' E 019°04'5 9.8
2018-Jun-11 00:30N 69°48' E 019°17'5 9.7
2018-Jun-11 00:00N 69°52' E 019°24'510.3
2018-Jun-10 23:30N 69°56' E 019°32'510.1
2018-Jun-10 23:00N 69°59' E 019°43'5 9.3
2018-Jun-10 22:30N 70°02' E 019°54'4 8.8
2018-Jun-10 22:00N 70°02' E 020°07'611.2
2018-Jun-10 21:30N 70°01' E 020°24'511.0
2018-Jun-10 21:00N 70°02' E 020°40'610.6
2018-Jun-10 20:29N 70°04' E 020°55'2 4.4
2018-Jun-10 20:00N 70°02' E 020°59'0 0.0
2018-Jun-10 19:30N 70°02' E 020°59'0 0.0
2018-Jun-10 19:00N 70°02' E 020°59'0 0.0
2018-Jun-10 18:30N 70°02' E 020°59'1 1.1
2018-Jun-10 17:59N 70°02' E 021°01'3 6.5
2018-Jun-10 17:30N 70°03' E 020°52'610.6
2018-Jun-10 16:58N 70°02' E 020°36'510.4
2018-Jun-10 16:30N 70°01' E 020°22'510.6
2018-Jun-10 16:00N 70°02' E 020°07'510.5
2018-Jun-10 15:30N 70°02' E 019°51'510.4
2018-Jun-10 15:00N 70°04' E 019°36'1010.0
2018-Jun-10 14:00N 70°06' E 019°07'510.0
2018-Jun-10 13:30N 70°03' E 018°56'4 8.8
2018-Jun-10 13:00N 69°60' E 018°46'510.3
2018-Jun-10 12:30N 69°56' E 018°35'5 9.8
2018-Jun-10 12:00N 69°53' E 018°25'510.2
2018-Jun-10 11:30N 69°51' E 018°12'510.6
2018-Jun-10 11:00N 69°48' E 017°60'610.8
2018-Jun-10 10:29N 69°44' E 017°47'510.3
2018-Jun-10 10:00N 69°41' E 017°37'510.0
2018-Jun-10 09:30N 69°37' E 017°27'5 9.7
2018-Jun-10 08:59N 69°32' E 017°28'4 7.4
2018-Jun-10 08:29N 69°29' E 017°34'0 0.0
2018-Jun-10 08:00N 69°29' E 017°34'0 0.0
2018-Jun-10 07:30N 69°29' E 017°34'0 0.0
2018-Jun-10 07:00N 69°29' E 017°34'0 0.0
2018-Jun-10 06:28N 69°29' E 017°34'0 0.0
2018-Jun-10 05:59N 69°29' E 017°34'0 0.0
2018-Jun-10 05:30N 69°29' E 017°34'0 1.0
2018-Jun-10 05:00N 69°29' E 017°34'5 9.9
2018-Jun-10 04:30N 69°34' E 017°27'510.5
2018-Jun-10 04:00N 69°39' E 017°31'611.5
2018-Jun-10 03:30N 69°43' E 017°43'611.2
2018-Jun-10 02:59N 69°46' E 017°55'5 9.8
2018-Jun-10 02:30N 69°49' E 018°06'5 9.4
2018-Jun-10 02:00N 69°52' E 018°18'5 9.8
2018-Jun-10 01:30N 69°54' E 018°31'510.2
2018-Jun-10 01:00N 69°58' E 018°41'510.7
2018-Jun-10 00:30N 70°02' E 018°51'510.0
2018-Jun-10 00:00N 70°05' E 019°02'5 9.5
2018-Jun-09 23:30N 70°06' E 019°16'5 9.5
2018-Jun-09 22:58N 70°04' E 019°30'5 9.8
2018-Jun-09 22:30N 70°03' E 019°43'  

Dump ship's entire track history